Darstellungsparameter: Aktuell verwendete Einstellungen:
Skalierung der Graphiken ... ?
xyx+y,   Skalierungsfaktor:      Skalierung: Modus: x, Faktor: 1
Darstellungszeitraum ... ?
Vom - - bis: - -   Zeitraum: 06.05.2020 - 08.05.2020
Min/Max/Avg-Anzeige ... ?
Zeige MMA aktuell
Zeige MMA Monat
Zeige MMA alles
Zeige --A aktuell
Zeige --A Monat
Zeige --A alles
Keine MMA-Anzeige
MMA:
Average (ber die Originaldaten)
MMA-Basis: 06.05.2020 - 08.05.2020
Quicknavigation für Darstellung... ?
Tage:      1T, 2T, 3T, 5T -1T -2T -3T -5T +1T +2T +3T +5T
Wochen: 1W, 2W, 3W -1W -2W -3W +1W +2W +3W
Monate: 1M, 3M, 6M -1M -3M -6M +1M +3M +6M
Jahre:    1J, 3J, 5J, 10J -1J -3J -5J -10J +1J +3J +5J +10J
Nutze für die Darstellung ... ?
Originaldaten oder Mittelwerte auf ...
Stundenbasis Tagesbasis Wochenbasis
Monatsbasis Jahresbasis      Datenbasis: Original-Daten
Darstellen als:
Statistik (Auto) Statistik J:M      Darstellung:
Zur Graphik,    zurück zur Übersicht aller Sensoren.
 
Tabellarische Datenbersicht: ?
 
Sensor: Nr:Datum:Temp:Feuchte:
Aussen-T/F 1 06-05-2020 00:03:18 7.5 C 29 %
2 06-05-2020 00:13:18 7.4 C 30 %
3 06-05-2020 00:23:18 7 C 30 %
4 06-05-2020 00:33:17 6.8 C 31 %
5 06-05-2020 00:43:17 6.4 C 33 %
6 06-05-2020 00:53:17 6 C 33 %
7 06-05-2020 01:03:17 5.9 C 34 %
8 06-05-2020 01:13:17 5.7 C 35 %
9 06-05-2020 01:23:17 5 C 36 %
10 06-05-2020 01:33:17 4.7 C 37 %
11 06-05-2020 01:43:17 4.3 C 38 %
12 06-05-2020 01:53:18 4.2 C 38 %
13 06-05-2020 02:03:17 4 C 39 %
14 06-05-2020 02:13:17 3.7 C 40 %
15 06-05-2020 02:23:17 3.7 C 40 %
16 06-05-2020 02:33:18 3.6 C 40 %
17 06-05-2020 02:43:18 3.4 C 40 %
18 06-05-2020 02:53:17 3.1 C 41 %
19 06-05-2020 03:03:17 3.1 C 41 %
20 06-05-2020 03:13:17 2.8 C 42 %
21 06-05-2020 03:23:17 2.8 C 42 %
22 06-05-2020 03:33:17 2.5 C 42 %
23 06-05-2020 03:43:17 2.3 C 43 %
24 06-05-2020 03:53:18 2.3 C 43 %
25 06-05-2020 04:03:17 2.4 C 43 %
Sensor: Nr:Datum:Temp:Feuchte:
Aussen-T/F 26 06-05-2020 04:13:17 2.2 C 43 %
27 06-05-2020 04:23:17 2.4 C 44 %
28 06-05-2020 04:33:18 2.3 C 43 %
29 06-05-2020 04:43:18 2 C 44 %
30 06-05-2020 04:53:17 2 C 44 %
31 06-05-2020 05:03:17 2.1 C 45 %
32 06-05-2020 05:13:17 1.8 C 45 %
33 06-05-2020 05:23:17 1.8 C 46 %
34 06-05-2020 05:33:17 1.8 C 47 %
35 06-05-2020 05:43:17 1.7 C 46 %
36 06-05-2020 05:53:18 1.5 C 46 %
37 06-05-2020 06:03:18 1.5 C 46 %
38 06-05-2020 06:13:18 1.4 C 46 %
39 06-05-2020 06:23:17 1.4 C 47 %
40 06-05-2020 06:33:17 1.4 C 47 %
41 06-05-2020 06:43:17 1.5 C 47 %
42 06-05-2020 06:53:17 1.6 C 47 %
43 06-05-2020 07:03:17 1.7 C 47 %
44 06-05-2020 07:13:17 1.8 C 47 %
45 06-05-2020 07:23:17 2 C 47 %
46 06-05-2020 07:33:17 2.2 C 45 %
47 06-05-2020 07:43:17 2.4 C 46 %
48 06-05-2020 07:53:17 2.6 C 46 %
49 06-05-2020 08:03:18 2.8 C 45 %
50 06-05-2020 08:13:18 3 C 44 %
Sensor: Nr:Datum:Temp:Feuchte:
Aussen-T/F 51 06-05-2020 08:23:17 3.6 C 44 %
52 06-05-2020 08:33:17 3.7 C 44 %
53 06-05-2020 08:43:17 4.1 C 43 %
54 06-05-2020 08:53:18 4.7 C 42 %
55 06-05-2020 09:03:17 5.1 C 41 %
56 06-05-2020 09:13:18 5.7 C 41 %
57 06-05-2020 09:23:17 6.5 C 40 %
58 06-05-2020 09:33:17 6.8 C 39 %
59 06-05-2020 09:43:17 7.5 C 38 %
60 06-05-2020 09:53:17 7.8 C 37 %
61 06-05-2020 10:03:18 8.3 C 37 %
62 06-05-2020 10:13:18 9 C 35 %
63 06-05-2020 10:23:17 9.9 C 31 %
64 06-05-2020 10:33:18 11.7 C 25 %
65 06-05-2020 10:43:18 12.3 C 20 %
66 06-05-2020 10:53:17 12.4 C 20 %
67 06-05-2020 11:03:17 12.9 C 20 %
68 06-05-2020 11:13:17 13.1 C 20 %
69 06-05-2020 11:23:17 13.6 C 20 %
70 06-05-2020 11:33:17 13.7 C 20 %
71 06-05-2020 11:43:18 13.6 C 20 %
72 06-05-2020 11:53:17 13.9 C 20 %
73 06-05-2020 12:03:17 13.8 C 20 %
74 06-05-2020 12:13:17 13.8 C 20 %
75 06-05-2020 12:23:18 14 C 20 %
Sensor: Nr:Datum:Temp:Feuchte:
Aussen-T/F 76 06-05-2020 12:33:18 14.1 C 20 %
77 06-05-2020 12:43:18 13.8 C 20 %
78 06-05-2020 12:53:17 14.2 C 20 %
79 06-05-2020 13:03:18 14.3 C 20 %
80 06-05-2020 13:13:18 14.2 C 20 %
81 06-05-2020 13:23:18 14.6 C 20 %
82 06-05-2020 13:33:17 14.8 C 20 %
83 06-05-2020 13:43:18 14.8 C 20 %
84 06-05-2020 13:53:17 15.6 C 20 %
85 06-05-2020 14:03:18 18.6 C 20 %
86 06-05-2020 14:13:18 20.6 C 20 %
87 06-05-2020 14:23:17 23.8 C 20 %
88 06-05-2020 14:33:17 23.1 C 20 %
89 06-05-2020 14:43:17 23.1 C 20 %
90 06-05-2020 14:53:17 24.2 C 20 %
91 06-05-2020 15:03:17 24.4 C 20 %
92 06-05-2020 15:13:17 26.3 C 20 %
93 06-05-2020 15:23:17 22.6 C 20 %
94 06-05-2020 15:33:17 26.1 C 20 %
95 06-05-2020 15:43:17 23.6 C 20 %
96 06-05-2020 15:53:17 24.9 C 20 %
97 06-05-2020 16:03:18 24.5 C 20 %
98 06-05-2020 16:13:18 25.9 C 20 %
99 06-05-2020 16:23:17 25.5 C 20 %
100 06-05-2020 16:33:17 26.9 C 20 %
Sensor: Nr:Datum:Temp:Feuchte:
Aussen-T/F 101 06-05-2020 16:43:17 24.7 C 20 %
102 06-05-2020 16:53:17 24.5 C 20 %
103 06-05-2020 17:03:17 26.3 C 20 %
104 06-05-2020 17:13:17 23.5 C 20 %
105 06-05-2020 17:23:17 24.9 C 20 %
106 06-05-2020 17:33:17 24.1 C 20 %
107 06-05-2020 17:43:17 24.5 C 20 %
108 06-05-2020 17:53:18 25.2 C 20 %
109 06-05-2020 18:03:18 24.7 C 20 %
110 06-05-2020 18:13:18 20.4 C 20 %
111 06-05-2020 18:23:18 20.3 C 20 %
112 06-05-2020 18:33:17 19.6 C 20 %
113 06-05-2020 18:43:17 19.1 C 20 %
114 06-05-2020 18:53:17 18.7 C 20 %
115 06-05-2020 19:03:18 18.4 C 20 %
116 06-05-2020 19:13:18 18.1 C 20 %
117 06-05-2020 19:23:18 18.2 C 20 %
118 06-05-2020 19:33:17 17.7 C 20 %
119 06-05-2020 19:43:18 17.4 C 20 %
120 06-05-2020 19:53:17 17.2 C 20 %
121 06-05-2020 20:03:17 16.6 C 20 %
122 06-05-2020 20:13:17 16 C 20 %
123 06-05-2020 20:23:17 14.8 C 20 %
124 06-05-2020 20:33:18 14 C 20 %
125 06-05-2020 20:43:18 13.5 C 20 %
Sensor: Nr:Datum:Temp:Feuchte:
Aussen-T/F 126 06-05-2020 20:53:17 13 C 20 %
127 06-05-2020 21:03:17 12.8 C 20 %
128 06-05-2020 21:13:17 12.4 C 20 %
129 06-05-2020 21:23:18 11.9 C 25 %
130 06-05-2020 21:33:17 10.9 C 27 %
131 06-05-2020 21:43:17 10.5 C 29 %
132 06-05-2020 21:53:17 9.7 C 31 %
133 06-05-2020 22:03:18 9.4 C 31 %
134 06-05-2020 22:13:18 9.4 C 30 %
135 06-05-2020 22:23:17 9.1 C 32 %
136 06-05-2020 22:33:18 9 C 31 %
137 06-05-2020 22:43:18 8.6 C 32 %
138 06-05-2020 22:53:17 8.2 C 33 %
139 06-05-2020 23:03:17 8.1 C 33 %
140 06-05-2020 23:13:18 7.7 C 35 %
141 06-05-2020 23:23:17 7.2 C 35 %
142 06-05-2020 23:33:17 6.9 C 36 %
143 06-05-2020 23:43:17 6.8 C 36 %
144 06-05-2020 23:53:17 6.6 C 36 %
145 07-05-2020 00:03:17 6.4 C 36 %
146 07-05-2020 00:13:17 6.4 C 37 %
147 07-05-2020 00:23:17 6.1 C 37 %
148 07-05-2020 00:33:18 6.1 C 37 %
149 07-05-2020 00:43:18 6.1 C 37 %
150 07-05-2020 00:53:17 6.3 C 37 %
Sensor: Nr:Datum:Temp:Feuchte:
Aussen-T/F 151 07-05-2020 01:03:18 6.2 C 37 %
152 07-05-2020 01:13:18 6.2 C 37 %
153 07-05-2020 01:23:17 6 C 37 %
154 07-05-2020 01:33:18 5.9 C 38 %
155 07-05-2020 01:43:18 5.9 C 38 %
156 07-05-2020 01:53:17 5.2 C 39 %
157 07-05-2020 02:03:17 5.2 C 39 %
158 07-05-2020 02:13:17 5.2 C 39 %
159 07-05-2020 02:23:18 5.1 C 40 %
160 07-05-2020 02:33:17 4.8 C 40 %
161 07-05-2020 02:43:17 4.7 C 40 %
162 07-05-2020 02:53:17 4.6 C 41 %
163 07-05-2020 03:03:17 4.6 C 41 %
164 07-05-2020 03:13:18 4.5 C 41 %
165 07-05-2020 03:23:17 4.3 C 41 %
166 07-05-2020 03:33:17 4.4 C 41 %
167 07-05-2020 03:43:17 4.1 C 41 %
168 07-05-2020 03:53:17 4.2 C 42 %
169 07-05-2020 04:03:17 4.2 C 42 %
170 07-05-2020 04:13:17 4 C 42 %
171 07-05-2020 04:23:18 3.7 C 43 %
172 07-05-2020 04:33:17 3.6 C 43 %
173 07-05-2020 04:43:17 3.3 C 43 %
174 07-05-2020 04:53:17 3.2 C 44 %
175 07-05-2020 05:03:17 3.2 C 45 %
Sensor: Nr:Datum:Temp:Feuchte:
Aussen-T/F 176 07-05-2020 05:13:17 3.3 C 45 %
177 07-05-2020 05:23:17 3 C 44 %
178 07-05-2020 05:33:17 3.1 C 45 %
179 07-05-2020 05:43:17 3 C 45 %
180 07-05-2020 05:53:17 3.1 C 45 %
181 07-05-2020 06:03:17 3 C 45 %
182 07-05-2020 06:13:17 2.9 C 45 %
183 07-05-2020 06:23:17 2.9 C 46 %
184 07-05-2020 06:33:17 2.9 C 46 %
185 07-05-2020 06:43:17 2.7 C 46 %
186 07-05-2020 06:53:18 3 C 46 %
187 07-05-2020 07:03:17 3 C 45 %
188 07-05-2020 07:13:17 3 C 45 %
189 07-05-2020 07:23:17 3.2 C 46 %
190 07-05-2020 07:33:17 3.4 C 46 %
191 07-05-2020 07:43:17 3.6 C 45 %
192 07-05-2020 07:53:17 3.8 C 44 %
193 07-05-2020 08:03:17 3.9 C 44 %
194 07-05-2020 08:13:17 4.2 C 43 %
195 07-05-2020 08:23:17 4.5 C 43 %
196 07-05-2020 08:33:18 4.6 C 43 %
197 07-05-2020 08:43:18 5.1 C 41 %
198 07-05-2020 08:53:17 5.2 C 41 %
199 07-05-2020 09:03:17 5.8 C 41 %
200 07-05-2020 09:13:17 6.2 C 41 %
Sensor: Nr:Datum:Temp:Feuchte:
Aussen-T/F 201 07-05-2020 09:23:17 6.7 C 41 %
202 07-05-2020 09:33:18 7.5 C 40 %
203 07-05-2020 09:43:18 8.6 C 38 %
204 07-05-2020 09:53:17 8.8 C 38 %
205 07-05-2020 10:03:17 9.3 C 37 %
206 07-05-2020 10:13:17 9.8 C 36 %
207 07-05-2020 10:23:17 10.3 C 35 %
208 07-05-2020 10:33:17 11.3 C 35 %
209 07-05-2020 10:43:17 11.9 C 34 %
210 07-05-2020 10:53:17 13.4 C 30 %
211 07-05-2020 11:03:17 14.2 C 26 %
212 07-05-2020 11:13:17 14.7 C 28 %
213 07-05-2020 11:23:17 15.3 C 25 %
214 07-05-2020 11:33:17 15.4 C 25 %
215 07-05-2020 11:43:17 15.9 C 25 %
216 07-05-2020 11:53:17 16.2 C 22 %
217 07-05-2020 12:03:17 16.6 C 20 %
218 07-05-2020 12:13:17 16.8 C 20 %
219 07-05-2020 12:23:17 16.9 C 20 %
220 07-05-2020 12:33:17 17 C 20 %
221 07-05-2020 12:43:18 17 C 20 %
222 07-05-2020 12:53:17 17.3 C 20 %
223 07-05-2020 13:03:17 17.5 C 20 %
224 07-05-2020 13:13:17 17.6 C 20 %
225 07-05-2020 13:23:17 17.6 C 20 %
Sensor: Nr:Datum:Temp:Feuchte:
Aussen-T/F 226 07-05-2020 13:33:17 18.2 C 20 %
227 07-05-2020 13:43:17 18.5 C 20 %
228 07-05-2020 13:54:17 20.1 C 20 %
229 07-05-2020 14:03:17 23.3 C 20 %
230 07-05-2020 14:13:17 25.2 C 20 %
231 07-05-2020 14:23:17 27.5 C 20 %
232 07-05-2020 14:33:17 28.2 C 20 %
233 07-05-2020 14:43:17 28.7 C 20 %
234 07-05-2020 14:54:17 28.4 C 20 %
235 07-05-2020 15:03:18 28.7 C 20 %
236 07-05-2020 15:13:18 27.9 C 20 %
237 07-05-2020 15:23:17 28.5 C 20 %
238 07-05-2020 15:33:18 30.2 C 20 %
239 07-05-2020 15:43:18 29.3 C 20 %
240 07-05-2020 15:53:17 30 C 20 %
241 07-05-2020 16:03:17 30.1 C 20 %
242 07-05-2020 16:13:17 31.3 C 20 %
243 07-05-2020 16:24:17 28.8 C 20 %
244 07-05-2020 16:33:17 29.5 C 20 %
245 07-05-2020 16:43:17 31.1 C 20 %
246 07-05-2020 16:54:17 31.3 C 20 %
247 07-05-2020 17:03:17 29 C 20 %
248 07-05-2020 17:13:17 29.3 C 20 %
249 07-05-2020 17:23:17 28.6 C 20 %
250 07-05-2020 17:33:17 30.2 C 20 %
Sensor: Nr:Datum:Temp:Feuchte:
Aussen-T/F 251 07-05-2020 17:43:17 27.4 C 20 %
252 07-05-2020 17:53:17 27.9 C 20 %
253 07-05-2020 18:04:17 27.4 C 20 %
254 07-05-2020 18:13:17 24.5 C 20 %
255 07-05-2020 18:23:17 23.3 C 20 %
256 07-05-2020 18:33:17 23.5 C 20 %
257 07-05-2020 18:43:18 22.8 C 20 %
258 07-05-2020 18:54:17 22.1 C 20 %
259 07-05-2020 19:03:17 22.2 C 20 %
260 07-05-2020 19:13:18 22.1 C 20 %
261 07-05-2020 19:24:17 22 C 20 %
262 07-05-2020 19:33:17 21.4 C 20 %
263 07-05-2020 19:43:17 20.2 C 20 %
264 07-05-2020 19:54:17 19.3 C 20 %
265 07-05-2020 20:03:18 18.7 C 20 %
266 07-05-2020 20:13:18 18.1 C 20 %
267 07-05-2020 20:24:17 17.5 C 20 %
268 07-05-2020 20:34:17 17.1 C 20 %
269 07-05-2020 20:44:17 16.5 C 20 %
270 07-05-2020 20:54:17 16.2 C 20 %
271 07-05-2020 21:04:17 16 C 20 %
272 07-05-2020 21:14:17 15.4 C 21 %
273 07-05-2020 21:24:17 15 C 22 %
274 07-05-2020 21:34:17 14.6 C 25 %
275 07-05-2020 21:43:17 14.2 C 25 %
Sensor: Nr:Datum:Temp:Feuchte:
Aussen-T/F 276 07-05-2020 21:54:17 13.7 C 26 %
277 07-05-2020 22:04:17 13.2 C 27 %
278 07-05-2020 22:14:17 13.2 C 27 %
279 07-05-2020 22:24:17 12.8 C 30 %
280 07-05-2020 22:34:17 12.3 C 30 %
281 07-05-2020 22:44:17 12.3 C 30 %
282 07-05-2020 22:53:18 12.2 C 30 %
283 07-05-2020 23:04:17 11.7 C 31 %
284 07-05-2020 23:14:17 11.4 C 31 %
285 07-05-2020 23:24:17 11.4 C 30 %
286 07-05-2020 23:34:17 11.6 C 31 %
287 07-05-2020 23:44:17 11.2 C 32 %
288 07-05-2020 23:54:17 11.1 C 32 %
289 08-05-2020 00:04:17 10.7 C 33 %
290 08-05-2020 00:14:17 10.4 C 33 %
291 08-05-2020 00:24:17 10.2 C 33 %
292 08-05-2020 00:34:17 9.7 C 35 %
293 08-05-2020 00:44:17 9.6 C 35 %
294 08-05-2020 00:54:17 9.4 C 35 %
295 08-05-2020 01:04:17 9.4 C 35 %
296 08-05-2020 01:14:17 9.6 C 35 %
297 08-05-2020 01:24:17 9.6 C 35 %
298 08-05-2020 01:34:17 9.3 C 36 %
299 08-05-2020 01:44:17 9.8 C 36 %
300 08-05-2020 01:54:18 9.5 C 36 %
Sensor: Nr:Datum:Temp:Feuchte:
Aussen-T/F 301 08-05-2020 02:04:18 9.2 C 36 %
302 08-05-2020 02:13:18 8.9 C 37 %
303 08-05-2020 02:24:17 8.6 C 38 %
304 08-05-2020 02:34:17 8.4 C 38 %
305 08-05-2020 02:44:17 8.2 C 38 %
306 08-05-2020 02:54:17 7.9 C 39 %
307 08-05-2020 03:04:17 7.9 C 39 %
308 08-05-2020 03:14:17 7.9 C 39 %
309 08-05-2020 03:24:17 7.8 C 40 %
310 08-05-2020 03:34:18 7.7 C 40 %
311 08-05-2020 03:44:18 7.5 C 40 %
312 08-05-2020 03:54:17 7.4 C 40 %
313 08-05-2020 04:04:18 7.5 C 40 %
314 08-05-2020 04:14:18 7 C 40 %
315 08-05-2020 04:24:18 6.9 C 41 %
316 08-05-2020 04:34:18 6.8 C 42 %
317 08-05-2020 04:44:18 7 C 41 %
318 08-05-2020 04:54:18 7.3 C 41 %
319 08-05-2020 05:04:18 7.3 C 41 %
320 08-05-2020 05:14:18 7.4 C 41 %
321 08-05-2020 05:24:17 7.5 C 41 %
322 08-05-2020 05:34:17 7.2 C 41 %
323 08-05-2020 05:44:17 7 C 41 %
324 08-05-2020 05:54:18 7.1 C 41 %
325 08-05-2020 06:04:17 6.9 C 42 %
Sensor: Nr:Datum:Temp:Feuchte:
Aussen-T/F 326 08-05-2020 06:14:17 6.9 C 42 %
327 08-05-2020 06:24:17 6.8 C 42 %
328 08-05-2020 06:34:17 6.7 C 43 %
329 08-05-2020 06:44:17 6.4 C 42 %
330 08-05-2020 06:54:17 6.3 C 43 %
331 08-05-2020 07:04:17 6.5 C 43 %
332 08-05-2020 07:14:17 6.9 C 44 %
333 08-05-2020 07:24:17 7.3 C 42 %
334 08-05-2020 07:34:18 7.3 C 41 %
335 08-05-2020 07:44:18 7.4 C 42 %
336 08-05-2020 07:54:17 7.9 C 41 %
337 08-05-2020 08:04:17 8.2 C 40 %
338 08-05-2020 08:14:17 8.4 C 40 %
339 08-05-2020 08:24:17 8.4 C 40 %
340 08-05-2020 08:34:17 8.5 C 40 %
341 08-05-2020 08:44:17 8.7 C 40 %
342 08-05-2020 08:54:17 9 C 40 %
343 08-05-2020 09:04:17 9.5 C 39 %
344 08-05-2020 09:14:17 10.2 C 37 %
345 08-05-2020 09:24:17 10.7 C 37 %
346 08-05-2020 09:34:17 11.1 C 36 %
347 08-05-2020 09:44:17 11.8 C 36 %
348 08-05-2020 09:54:17 12.2 C 35 %
349 08-05-2020 10:04:17 12.5 C 35 %
350 08-05-2020 10:14:17 13.1 C 34 %
Sensor: Nr:Datum:Temp:Feuchte:
Aussen-T/F 351 08-05-2020 10:24:17 14 C 33 %
352 08-05-2020 10:34:17 14.6 C 32 %
353 08-05-2020 10:44:18 15.8 C 28 %
354 08-05-2020 10:54:17 16.7 C 27 %
355 08-05-2020 11:04:17 17.1 C 26 %
356 08-05-2020 11:14:17 17.5 C 27 %
357 08-05-2020 11:24:17 17.7 C 27 %
358 08-05-2020 11:34:17 18.2 C 25 %
359 08-05-2020 11:44:18 18.9 C 22 %
360 08-05-2020 11:54:17 19 C 21 %
361 08-05-2020 12:04:17 19.3 C 20 %
362 08-05-2020 12:14:18 19.4 C 20 %
363 08-05-2020 12:24:17 19.5 C 20 %
364 08-05-2020 12:34:17 19.8 C 20 %
365 08-05-2020 12:44:17 20 C 20 %
366 08-05-2020 12:54:17 20.3 C 20 %
367 08-05-2020 13:04:16 20.7 C 20 %
368 08-05-2020 13:14:16 21.4 C 20 %
369 08-05-2020 13:24:17 21.9 C 20 %
370 08-05-2020 13:34:17 22.3 C 20 %
371 08-05-2020 13:44:17 22.5 C 20 %
372 08-05-2020 13:54:16 24 C 20 %
373 08-05-2020 14:04:17 26.1 C 20 %
374 08-05-2020 14:14:17 27.5 C 20 %
375 08-05-2020 14:24:17 28.2 C 20 %
Sensor: Nr:Datum:Temp:Feuchte:
Aussen-T/F 376 08-05-2020 14:34:16 30 C 20 %
377 08-05-2020 14:44:16 27.5 C 20 %
378 08-05-2020 14:54:17 27.3 C 20 %
379 08-05-2020 15:04:17 26 C 20 %
380 08-05-2020 15:14:18 25.2 C 20 %
381 08-05-2020 15:24:17 25.8 C 20 %
382 08-05-2020 15:34:16 27.1 C 20 %
383 08-05-2020 15:44:16 28.3 C 20 %
384 08-05-2020 15:54:17 30.6 C 20 %
385 08-05-2020 16:04:17 31.3 C 20 %
386 08-05-2020 16:14:17 29.3 C 20 %
387 08-05-2020 16:24:17 32 C 20 %
388 08-05-2020 16:34:16 30.5 C 20 %
389 08-05-2020 16:44:16 27.4 C 20 %
390 08-05-2020 16:54:16 26.3 C 20 %
391 08-05-2020 17:04:17 26.8 C 20 %
392 08-05-2020 17:14:17 26.3 C 20 %
393 08-05-2020 17:24:16 28.5 C 20 %
394 08-05-2020 17:34:16 26.8 C 20 %
395 08-05-2020 17:44:16 28.8 C 20 %
396 08-05-2020 17:54:16 27.5 C 20 %
397 08-05-2020 18:04:17 26.5 C 20 %
398 08-05-2020 18:14:17 25.5 C 20 %
399 08-05-2020 18:24:16 25.1 C 20 %
400 08-05-2020 18:34:17 25.1 C 20 %
Sensor: Nr:Datum:Temp:Feuchte:
Aussen-T/F 401 08-05-2020 18:44:18 24.4 C 20 %
402 08-05-2020 18:54:16 24 C 20 %
403 08-05-2020 19:04:16 23.5 C 20 %
404 08-05-2020 19:14:16 23.7 C 20 %
405 08-05-2020 19:24:16 23.6 C 20 %
406 08-05-2020 19:34:16 22.9 C 20 %
407 08-05-2020 19:44:16 22.4 C 20 %
408 08-05-2020 19:54:16 21.6 C 20 %
409 08-05-2020 20:04:17 19.7 C 20 %
410 08-05-2020 20:14:17 18.8 C 20 %
411 08-05-2020 20:24:16 18.5 C 20 %
412 08-05-2020 20:34:17 18.2 C 20 %
413 08-05-2020 20:44:17 17.7 C 20 %
414 08-05-2020 20:54:17 17.3 C 20 %
415 08-05-2020 21:04:17 17.1 C 20 %
416 08-05-2020 21:14:17 16.9 C 20 %
417 08-05-2020 21:24:16 16.4 C 21 %
418 08-05-2020 21:34:16 16 C 22 %
419 08-05-2020 21:44:16 15.7 C 24 %
420 08-05-2020 21:54:16 15.2 C 25 %
421 08-05-2020 22:04:17 14.9 C 26 %
422 08-05-2020 22:14:17 15 C 26 %
423 08-05-2020 22:24:16 14.9 C 27 %
424 08-05-2020 22:34:16 14.7 C 27 %
425 08-05-2020 22:44:16 14.3 C 28 %
Sensor: Nr:Datum:Temp:Feuchte:
Aussen-T/F 426 08-05-2020 22:54:16 14.1 C 27 %
427 08-05-2020 23:04:17 14 C 27 %
428 08-05-2020 23:14:17 13.7 C 28 %
429 08-05-2020 23:24:16 13.6 C 29 %
430 08-05-2020 23:34:16 13.3 C 29 %
431 08-05-2020 23:44:16 13.2 C 29 %
432 08-05-2020 23:54:16 13.3 C 29 %
Sensor: Nr:Datum:Temp:Feuchte:

Legende:
   Min
   Max


Maximal/Minimal-Werte vom 06.05.2020 - 08.05.2020

Sensor Min Max Avg
Temp
(Aussen-T/F)
1.4 °C
06-05-2020  06:13:18
32 °C
08-05-2020  16:24:17
13.48 °C
Feuchte
(Aussen-T/F)
20 %
06-05-2020  10:43:18
47 %
06-05-2020  05:33:17
30.24 %
Temp
(G-T/H)
°C
-- 
°C 0 °C
Feuchte
(G-T/H)
%
-- 
% 0 %

Die Daten stammen von einer Davis Vantage Pro 2 Wetter-Station und werden unter Linux mit der Software wview2wettercgi und aufbereitet. Alle Angaben erfolgen ohne Gewähr für ihre Vollständigkeit oder Richtigkeit.
Kontakt: Rainer Krienke krienke@uni-koblenz.de . Meine Webseiten an der Uni Koblenz oder privat.
Version: $Revision: 0.78 $